Aviation Digital Data Service (ADDS)

Output produced by METARs form (0753 UTC 18 January 2018)
found at http://aviationweather.gov/adds/metars/
 
KBAF 180544Z 1806/1906 34005KT P6SM FEW250 
     FM181300 32010KT P6SM SKC 
     FM190200 31006KT P6SM FEW120